Time;durP1;ratioP1;P1;durP2;ratioP2;P2;SDS_P1;SDS_P2;PMS_P1;PMS_P2;Temp;Humidity;BMP_temperature;BMP_pressure;BME280_temperature;BME280_humidity;BME280_pressure;Samples;Min_cycle;Max_cycle;Signal;HPM_P1;HPM_P2
2021/08/28 00:00:33;;;;;;;5.37;4.97;;;;;;;;;;5107816;28;24421;-68
2021/08/28 00:02:58;;;;;;;5.10;4.80;;;;;;;;;;5104214;28;24463;-68
2021/08/28 00:05:23;;;;;;;5.40;5.00;;;;;;;;;;5108312;27;24418;-67
2021/08/28 00:07:49;;;;;;;5.67;5.27;;;;;;;;;;5107661;28;24560;-68
2021/08/28 00:10:14;;;;;;;6.00;5.50;;;;;;;;;;5107643;28;24455;-68
2021/08/28 00:12:39;;;;;;;5.30;5.00;;;;;;;;;;5107144;28;24510;-67
2021/08/28 00:15:06;;;;;;;5.43;5.03;;;;;;;;;;5108018;28;24947;-67
2021/08/28 00:17:35;;;;;;;5.70;5.30;;;;;;;;;;5108452;28;24410;-67
2021/08/28 00:20:04;;;;;;;6.30;5.90;;;;;;;;;;5109290;28;25050;-67
2021/08/28 00:22:30;;;;;;;6.20;5.80;;;;;;;;;;5107544;28;24417;-68
2021/08/28 00:24:55;;;;;;;5.20;4.90;;;;;;;;;;5105519;28;24429;-68
2021/08/28 00:27:20;;;;;;;4.90;4.60;;;;;;;;;;5105242;28;24525;-67
2021/08/28 00:29:46;;;;;;;6.23;5.83;;;;;;;;;;5099558;28;24458;-67
2021/08/28 00:32:11;;;;;;;5.93;5.53;;;;;;;;;;5103450;28;24421;-68
2021/08/28 00:34:36;;;;;;;5.90;5.50;;;;;;;;;;5107003;28;24470;-68
2021/08/28 00:37:01;;;;;;;6.53;6.10;;;;;;;;;;5107095;28;24409;-68
2021/08/28 00:39:26;;;;;;;6.20;5.80;;;;;;;;;;5106790;28;24665;-68
2021/08/28 00:41:51;;;;;;;5.45;5.07;;;;;;;;;;5107192;28;24477;-68
2021/08/28 00:44:16;;;;;;;6.53;6.13;;;;;;;;;;5106965;28;24580;-68
2021/08/28 00:46:42;;;;;;;6.13;5.72;;;;;;;;;;5107814;28;24421;-68
2021/08/28 00:49:07;;;;;;;5.60;5.20;;;;;;;;;;5107930;28;24999;-68
2021/08/28 00:51:32;;;;;;;5.07;4.78;;;;;;;;;;5107011;28;24417;-68
2021/08/28 00:53:57;;;;;;;6.40;6.00;;;;;;;;;;5107540;28;24456;-68
2021/08/28 00:56:22;;;;;;;7.07;6.57;;;;;;;;;;5110502;28;24428;-68
2021/08/28 00:58:47;;;;;;;6.70;6.30;;;;;;;;;;5121341;28;24413;-68
2021/08/28 01:01:16;;;;;;;6.50;6.10;;;;;;;;;;5107732;28;24405;-68
2021/08/28 01:03:41;;;;;;;6.30;5.90;;;;;;;;;;5107649;28;24526;-68
2021/08/28 01:06:25;;;;;;;6.20;5.70;;;;;;;;;;5107495;28;24443;-68
2021/08/28 01:08:50;;;;;;;6.13;5.72;;;;;;;;;;5107940;28;24782;-69
2021/08/28 01:11:20;;;;;;;7.43;6.82;;;;;;;;;;5107302;28;24778;-68
2021/08/28 01:13:47;;;;;;;5.78;5.47;;;;;;;;;;5101135;28;24471;-68
2021/08/28 01:16:13;;;;;;;6.72;6.25;;;;;;;;;;5107262;28;25046;-67
2021/08/28 01:18:39;;;;;;;7.18;6.68;;;;;;;;;;5107469;28;24512;-71
2021/08/28 01:21:09;;;;;;;7.85;7.35;;;;;;;;;;5108103;28;25024;-70
2021/08/28 01:23:35;;;;;;;8.10;7.50;;;;;;;;;;5109750;28;24423;-70
2021/08/28 01:26:07;;;;;;;6.82;6.40;;;;;;;;;;5111086;28;24842;-70
2021/08/28 01:28:33;;;;;;;6.63;6.23;;;;;;;;;;5110793;27;25012;-70
2021/08/28 01:30:59;;;;;;;6.53;6.10;;;;;;;;;;5115951;27;24846;-69
2021/08/28 01:33:24;;;;;;;6.60;6.10;;;;;;;;;;5110623;28;25066;-69
2021/08/28 01:35:50;;;;;;;7.33;6.83;;;;;;;;;;5110369;28;24433;-70
2021/08/28 01:38:15;;;;;;;7.30;6.80;;;;;;;;;;5107385;28;24934;-67
2021/08/28 01:40:41;;;;;;;6.67;6.27;;;;;;;;;;5121251;27;24809;-67
2021/08/28 01:43:07;;;;;;;6.80;6.40;;;;;;;;;;5119833;27;24512;-67
2021/08/28 01:45:32;;;;;;;6.50;6.10;;;;;;;;;;5108676;28;24573;-65
2021/08/28 01:47:58;;;;;;;6.40;6.00;;;;;;;;;;5110434;28;24467;-67
2021/08/28 01:50:24;;;;;;;7.50;7.00;;;;;;;;;;5110401;28;24503;-68
2021/08/28 01:52:50;;;;;;;6.90;6.50;;;;;;;;;;5122353;27;24445;-67
2021/08/28 01:55:15;;;;;;;6.75;6.25;;;;;;;;;;5111003;27;24490;-68
2021/08/28 01:57:41;;;;;;;7.38;6.88;;;;;;;;;;5110543;28;24416;-67
2021/08/28 02:00:07;;;;;;;6.82;6.43;;;;;;;;;;5110301;28;24410;-68
2021/08/28 02:02:32;;;;;;;6.50;6.10;;;;;;;;;;5110304;28;24402;-68
2021/08/28 02:04:58;;;;;;;7.30;6.80;;;;;;;;;;5109451;28;25022;-68
2021/08/28 02:07:25;;;;;;;6.85;6.45;;;;;;;;;;5110531;28;24489;-69
2021/08/28 02:09:53;;;;;;;7.30;6.80;;;;;;;;;;5110163;28;24830;-70
2021/08/28 02:12:25;;;;;;;7.00;6.60;;;;;;;;;;5106944;28;24457;-69
2021/08/28 02:14:52;;;;;;;7.05;6.60;;;;;;;;;;5106071;28;24443;-69
2021/08/28 02:17:18;;;;;;;7.38;6.88;;;;;;;;;;5114323;27;24420;-69
2021/08/28 02:19:44;;;;;;;6.63;6.22;;;;;;;;;;5115192;27;24414;-68
2021/08/28 02:22:11;;;;;;;6.63;6.22;;;;;;;;;;5109673;28;24558;-68
2021/08/28 02:24:38;;;;;;;7.40;6.90;;;;;;;;;;5109201;28;24405;-68
2021/08/28 02:27:05;;;;;;;6.80;6.30;;;;;;;;;;5109813;28;25077;-68
2021/08/28 02:29:33;;;;;;;6.93;6.43;;;;;;;;;;5110037;27;24523;-69
2021/08/28 02:31:58;;;;;;;7.13;6.63;;;;;;;;;;5099649;28;24410;-68
2021/08/28 02:34:25;;;;;;;7.28;6.78;;;;;;;;;;5108870;28;24417;-68
2021/08/28 02:36:50;;;;;;;7.63;7.00;;;;;;;;;;5108777;28;24422;-68
2021/08/28 02:39:16;;;;;;;7.43;6.82;;;;;;;;;;5108102;28;24425;-69
2021/08/28 02:41:43;;;;;;;6.35;5.95;;;;;;;;;;5108375;27;24553;-66
2021/08/28 02:44:09;;;;;;;6.03;5.63;;;;;;;;;;5112974;27;24989;-69
2021/08/28 02:46:34;;;;;;;6.10;5.70;;;;;;;;;;5107684;27;24413;-68
2021/08/28 02:49:00;;;;;;;6.20;5.80;;;;;;;;;;5119744;27;24417;-69
2021/08/28 02:51:27;;;;;;;6.30;5.90;;;;;;;;;;5117546;27;24417;-69
2021/08/28 02:53:53;;;;;;;6.72;6.30;;;;;;;;;;5109861;27;24434;-68
2021/08/28 02:56:20;;;;;;;5.70;5.30;;;;;;;;;;5108785;28;24435;-67
2021/08/28 02:58:46;;;;;;;5.18;4.88;;;;;;;;;;5109317;28;24818;-67
2021/08/28 03:01:11;;;;;;;4.50;4.20;;;;;;;;;;5109351;28;24414;-67
2021/08/28 03:03:37;;;;;;;5.07;4.78;;;;;;;;;;5108705;28;24533;-68
2021/08/28 03:06:03;;;;;;;4.60;4.30;;;;;;;;;;5109430;28;24402;-69
2021/08/28 03:08:28;;;;;;;6.00;5.60;;;;;;;;;;5108502;27;24428;-68
2021/08/28 03:10:54;;;;;;;5.50;5.10;;;;;;;;;;5109767;28;24422;-66
2021/08/28 03:13:20;;;;;;;5.15;4.85;;;;;;;;;;5108541;28;25022;-69
2021/08/28 03:15:45;;;;;;;5.13;4.73;;;;;;;;;;5108522;28;24497;-71
2021/08/28 03:18:11;;;;;;;4.60;4.30;;;;;;;;;;5109359;28;24394;-71
2021/08/28 03:20:36;;;;;;;5.28;4.88;;;;;;;;;;5118753;27;24435;-69
2021/08/28 03:23:02;;;;;;;6.38;5.97;;;;;;;;;;5108481;27;24820;-69
2021/08/28 03:25:27;;;;;;;5.73;5.33;;;;;;;;;;5108429;28;24966;-68
2021/08/28 03:27:53;;;;;;;6.40;6.00;;;;;;;;;;5108152;28;24445;-68
2021/08/28 03:30:19;;;;;;;5.67;5.27;;;;;;;;;;5108698;28;24461;-68
2021/08/28 03:32:46;;;;;;;7.40;6.88;;;;;;;;;;5108837;27;24440;-69
2021/08/28 03:35:11;;;;;;;7.10;6.60;;;;;;;;;;5109067;28;24374;-68
2021/08/28 03:37:38;;;;;;;6.90;6.40;;;;;;;;;;5108492;28;24547;-69
2021/08/28 03:40:03;;;;;;;6.90;6.40;;;;;;;;;;5108629;28;24401;-69
2021/08/28 03:42:28;;;;;;;7.30;6.80;;;;;;;;;;5107936;28;24414;-69
2021/08/28 03:44:56;;;;;;;7.80;7.27;;;;;;;;;;5127743;27;24444;-69
2021/08/28 03:47:21;;;;;;;7.22;6.72;;;;;;;;;;5108424;28;25058;-69
2021/08/28 03:49:46;;;;;;;6.60;6.20;;;;;;;;;;5107506;28;24433;-69
2021/08/28 03:52:11;;;;;;;7.43;6.93;;;;;;;;;;5108388;28;24830;-68
2021/08/28 03:54:36;;;;;;;7.40;6.90;;;;;;;;;;5107681;27;24516;-69
2021/08/28 03:57:02;;;;;;;8.27;7.78;;;;;;;;;;5107634;28;24569;-69
2021/08/28 03:59:27;;;;;;;7.67;7.17;;;;;;;;;;5108050;28;24409;-67
2021/08/28 04:01:53;;;;;;;7.10;6.60;;;;;;;;;;5108227;28;24521;-68
2021/08/28 04:04:18;;;;;;;7.07;6.57;;;;;;;;;;5107749;28;24448;-68
2021/08/28 04:06:44;;;;;;;7.60;7.10;;;;;;;;;;5108711;27;24567;-69
2021/08/28 04:09:09;;;;;;;7.00;6.60;;;;;;;;;;5090246;28;24612;-68
2021/08/28 04:11:34;;;;;;;7.60;7.10;;;;;;;;;;5107735;28;24410;-68
2021/08/28 04:13:59;;;;;;;7.77;7.17;;;;;;;;;;5108361;28;24445;-68
2021/08/28 04:16:24;;;;;;;7.57;6.97;;;;;;;;;;5108111;28;24413;-68
2021/08/28 04:18:50;;;;;;;7.63;7.10;;;;;;;;;;5108631;27;24416;-69
2021/08/28 04:21:15;;;;;;;8.75;8.15;;;;;;;;;;5107590;28;24496;-69
2021/08/28 04:23:40;;;;;;;7.60;7.10;;;;;;;;;;5107754;28;24424;-67
2021/08/28 04:26:05;;;;;;;7.70;7.10;;;;;;;;;;5107567;28;24406;-68
2021/08/28 04:28:30;;;;;;;7.50;7.00;;;;;;;;;;5107218;28;24418;-70
2021/08/28 04:30:56;;;;;;;8.50;7.90;;;;;;;;;;5107931;28;24413;-70
2021/08/28 04:33:21;;;;;;;8.17;7.57;;;;;;;;;;5108874;28;24787;-69
2021/08/28 04:35:46;;;;;;;6.80;6.40;;;;;;;;;;5107674;28;24974;-68
2021/08/28 04:38:11;;;;;;;7.90;7.30;;;;;;;;;;5107891;28;24423;-69
2021/08/28 04:40:37;;;;;;;7.97;7.38;;;;;;;;;;5107820;28;24445;-68
2021/08/28 04:43:02;;;;;;;7.55;7.03;;;;;;;;;;5109722;28;25182;-68
2021/08/28 04:45:27;;;;;;;7.97;7.47;;;;;;;;;;5104116;28;24452;-69
2021/08/28 04:47:52;;;;;;;6.95;6.45;;;;;;;;;;5105952;28;24402;-69
2021/08/28 04:50:17;;;;;;;7.70;7.20;;;;;;;;;;5106227;28;24942;-69
2021/08/28 04:52:43;;;;;;;7.90;7.40;;;;;;;;;;5107025;28;24792;-70
2021/08/28 04:55:08;;;;;;;7.10;6.60;;;;;;;;;;5107578;28;25030;-69
2021/08/28 04:57:33;;;;;;;7.30;6.80;;;;;;;;;;5109040;28;24491;-69
2021/08/28 04:59:58;;;;;;;6.95;6.45;;;;;;;;;;5111835;28;24947;-69
2021/08/28 05:02:23;;;;;;;7.95;7.45;;;;;;;;;;5111540;28;25051;-68
2021/08/28 05:04:48;;;;;;;8.60;7.80;;;;;;;;;;5111234;28;24802;-69
2021/08/28 05:07:14;;;;;;;8.43;7.83;;;;;;;;;;5115939;27;24435;-68
2021/08/28 05:09:39;;;;;;;7.50;7.00;;;;;;;;;;5117825;27;24508;-68
2021/08/28 05:12:04;;;;;;;7.60;7.00;;;;;;;;;;5111292;28;24471;-68
2021/08/28 05:14:29;;;;;;;7.07;6.67;;;;;;;;;;5117381;27;24779;-67
2021/08/28 05:16:54;;;;;;;7.28;6.80;;;;;;;;;;5110644;28;24401;-67
2021/08/28 05:19:19;;;;;;;7.40;6.80;;;;;;;;;;5112326;27;24486;-67
2021/08/28 05:21:46;;;;;;;7.03;6.63;;;;;;;;;;5109848;28;24862;-66
2021/08/28 05:24:11;;;;;;;7.45;6.95;;;;;;;;;;5110402;28;24436;-66
2021/08/28 05:26:36;;;;;;;7.43;6.93;;;;;;;;;;5109909;28;24908;-66
2021/08/28 05:29:01;;;;;;;7.35;6.85;;;;;;;;;;5106689;28;24475;-68
2021/08/28 05:31:26;;;;;;;7.63;7.13;;;;;;;;;;5105970;28;24425;-66
2021/08/28 05:33:52;;;;;;;6.80;6.40;;;;;;;;;;5115687;27;24979;-66
2021/08/28 05:36:17;;;;;;;6.85;6.35;;;;;;;;;;5108950;28;24475;-66
2021/08/28 05:38:42;;;;;;;7.07;6.57;;;;;;;;;;5110335;28;24410;-66
2021/08/28 05:41:08;;;;;;;6.63;6.22;;;;;;;;;;5114422;27;24954;-68
2021/08/28 05:43:33;;;;;;;7.03;6.53;;;;;;;;;;5109833;27;24417;-68
2021/08/28 05:45:59;;;;;;;6.03;5.63;;;;;;;;;;5112671;27;25050;-68
2021/08/28 05:48:24;;;;;;;7.53;7.03;;;;;;;;;;5111018;28;24409;-69
2021/08/28 05:50:49;;;;;;;7.80;7.20;;;;;;;;;;5104485;28;24441;-70
2021/08/28 05:53:15;;;;;;;7.30;6.80;;;;;;;;;;5106841;28;24438;-68
2021/08/28 05:55:40;;;;;;;7.35;6.85;;;;;;;;;;5107117;28;24966;-69
2021/08/28 05:58:05;;;;;;;7.00;6.50;;;;;;;;;;5109369;27;24985;-68
2021/08/28 06:00:30;;;;;;;8.13;7.53;;;;;;;;;;5108832;28;24429;-68
2021/08/28 06:02:56;;;;;;;7.90;7.30;;;;;;;;;;5108184;28;24445;-69
2021/08/28 06:05:21;;;;;;;6.50;6.10;;;;;;;;;;5109429;28;24498;-69
2021/08/28 06:07:46;;;;;;;7.70;7.20;;;;;;;;;;5111010;27;25037;-69
2021/08/28 06:10:11;;;;;;;7.30;6.80;;;;;;;;;;5108990;28;24417;-68
2021/08/28 06:12:36;;;;;;;7.67;7.07;;;;;;;;;;5107688;28;24444;-68
2021/08/28 06:15:02;;;;;;;7.77;7.17;;;;;;;;;;5109694;28;24955;-69
2021/08/28 06:17:27;;;;;;;8.15;7.55;;;;;;;;;;5109212;28;24939;-68
2021/08/28 06:19:52;;;;;;;8.23;7.63;;;;;;;;;;5109236;28;24807;-69
2021/08/28 06:22:18;;;;;;;8.10;7.50;;;;;;;;;;5109964;28;24459;-69
2021/08/28 06:24:43;;;;;;;7.80;7.20;;;;;;;;;;5105778;27;24421;-69
2021/08/28 06:27:08;;;;;;;8.67;8.07;;;;;;;;;;5109083;28;24989;-69
2021/08/28 06:29:34;;;;;;;9.10;8.40;;;;;;;;;;5104953;27;24417;-68
2021/08/28 06:31:59;;;;;;;8.80;8.10;;;;;;;;;;5106508;28;24432;-68
2021/08/28 06:34:24;;;;;;;9.50;8.80;;;;;;;;;;5108894;28;24982;-67
2021/08/28 06:36:50;;;;;;;8.13;7.50;;;;;;;;;;5107514;28;24493;-67
2021/08/28 06:39:15;;;;;;;9.30;8.60;;;;;;;;;;5109556;28;24446;-68
2021/08/28 06:41:40;;;;;;;8.02;7.32;;;;;;;;;;5108643;27;24475;-68
2021/08/28 06:44:05;;;;;;;8.65;7.95;;;;;;;;;;5123264;27;26387;-68
2021/08/28 06:46:30;;;;;;;9.07;8.37;;;;;;;;;;5092551;28;24457;-68
2021/08/28 06:48:56;;;;;;;9.63;8.83;;;;;;;;;;5112525;27;25309;-66
2021/08/28 06:51:21;;;;;;;8.47;7.87;;;;;;;;;;5107507;27;24414;-67
2021/08/28 06:53:49;;;;;;;8.60;7.90;;;;;;;;;;5122104;27;24433;-68
2021/08/28 06:56:14;;;;;;;7.45;6.95;;;;;;;;;;5112044;27;25013;-68
2021/08/28 06:58:39;;;;;;;7.70;7.20;;;;;;;;;;5124501;27;24417;-68
2021/08/28 07:01:04;;;;;;;8.85;8.15;;;;;;;;;;5114782;27;24416;-68
2021/08/28 07:03:29;;;;;;;9.15;8.45;;;;;;;;;;5100535;27;24418;-69
2021/08/28 07:05:55;;;;;;;6.90;6.40;;;;;;;;;;5116434;27;24966;-68
2021/08/28 07:08:20;;;;;;;6.97;6.47;;;;;;;;;;5121423;27;24456;-69
2021/08/28 07:10:46;;;;;;;8.00;7.40;;;;;;;;;;5119835;27;24441;-69
2021/08/28 07:13:11;;;;;;;7.13;6.63;;;;;;;;;;5114849;27;24441;-68
2021/08/28 07:15:36;;;;;;;7.10;6.50;;;;;;;;;;5108305;28;24418;-69
2021/08/28 07:18:02;;;;;;;6.90;6.40;;;;;;;;;;5106541;28;24532;-68
2021/08/28 07:20:27;;;;;;;6.60;6.10;;;;;;;;;;5106972;28;24463;-68
2021/08/28 07:22:52;;;;;;;6.30;5.90;;;;;;;;;;5108476;28;24997;-69
2021/08/28 07:25:18;;;;;;;7.75;7.15;;;;;;;;;;5108634;28;24421;-68
2021/08/28 07:27:43;;;;;;;6.47;6.07;;;;;;;;;;5107975;28;24413;-68
2021/08/28 07:30:09;;;;;;;6.07;5.67;;;;;;;;;;5108000;28;24424;-69
2021/08/28 07:32:34;;;;;;;5.10;4.80;;;;;;;;;;5107918;27;24433;-68
2021/08/28 07:34:59;;;;;;;6.80;6.30;;;;;;;;;;5108790;28;24394;-67
2021/08/28 07:37:24;;;;;;;7.00;6.50;;;;;;;;;;5111923;27;24428;-67
2021/08/28 07:39:50;;;;;;;7.50;7.00;;;;;;;;;;5110457;27;24428;-68
2021/08/28 07:42:15;;;;;;;6.67;6.17;;;;;;;;;;5104766;28;24446;-68
2021/08/28 07:44:40;;;;;;;7.10;6.60;;;;;;;;;;5110995;27;24551;-68
2021/08/28 07:47:05;;;;;;;7.30;6.70;;;;;;;;;;5111933;27;24780;-69
2021/08/28 07:49:30;;;;;;;8.05;7.45;;;;;;;;;;5110518;27;24430;-69
2021/08/28 07:51:55;;;;;;;7.95;7.35;;;;;;;;;;5106950;28;24507;-69
2021/08/28 07:54:21;;;;;;;7.35;6.85;;;;;;;;;;5108105;28;24805;-68
2021/08/28 07:56:46;;;;;;;8.67;7.97;;;;;;;;;;5107420;28;24687;-68
2021/08/28 07:59:11;;;;;;;7.80;7.20;;;;;;;;;;5110868;27;25232;-68
2021/08/28 08:01:36;;;;;;;7.13;6.63;;;;;;;;;;5114516;27;24803;-69
2021/08/28 08:04:01;;;;;;;6.82;6.32;;;;;;;;;;5107538;28;24975;-69
2021/08/28 08:06:26;;;;;;;7.23;6.73;;;;;;;;;;5108057;28;24453;-68
2021/08/28 08:08:51;;;;;;;7.50;7.00;;;;;;;;;;5107219;28;24421;-69
2021/08/28 08:11:17;;;;;;;6.47;5.97;;;;;;;;;;5108987;28;25028;-68
2021/08/28 08:13:43;;;;;;;6.87;6.37;;;;;;;;;;5099690;28;24440;-68
2021/08/28 08:16:08;;;;;;;5.35;4.95;;;;;;;;;;5114382;27;24427;-68
2021/08/28 08:18:33;;;;;;;4.60;4.30;;;;;;;;;;5104426;27;24417;-68
2021/08/28 08:20:58;;;;;;;4.40;4.13;;;;;;;;;;5107330;28;24409;-69
2021/08/28 08:23:24;;;;;;;5.87;5.37;;;;;;;;;;5106522;28;24433;-71
2021/08/28 08:25:49;;;;;;;4.53;4.22;;;;;;;;;;5105128;28;24425;-71
2021/08/28 08:28:14;;;;;;;6.40;6.00;;;;;;;;;;5107699;28;24448;-69
2021/08/28 08:30:39;;;;;;;5.28;4.97;;;;;;;;;;5107097;28;24432;-70
2021/08/28 08:33:04;;;;;;;5.73;5.43;;;;;;;;;;5108554;28;24414;-70
2021/08/28 08:35:29;;;;;;;6.00;5.60;;;;;;;;;;5111863;28;24402;-69
2021/08/28 08:37:57;;;;;;;6.00;5.60;;;;;;;;;;5112318;28;24847;-69
2021/08/28 08:40:22;;;;;;;5.50;5.20;;;;;;;;;;5111598;28;24482;-69
2021/08/28 08:42:48;;;;;;;6.70;6.30;;;;;;;;;;5113591;27;24453;-69
2021/08/28 08:45:14;;;;;;;6.20;5.80;;;;;;;;;;5111885;28;24406;-69
2021/08/28 08:47:39;;;;;;;7.85;7.25;;;;;;;;;;5111934;28;24495;-69
2021/08/28 08:50:05;;;;;;;7.78;7.18;;;;;;;;;;5111589;28;24430;-69
2021/08/28 08:52:31;;;;;;;7.83;7.33;;;;;;;;;;5120447;27;24452;-70
2021/08/28 08:54:56;;;;;;;6.93;6.43;;;;;;;;;;5131720;27;24381;-69
2021/08/28 08:57:21;;;;;;;8.77;8.17;;;;;;;;;;5111195;28;24402;-69
2021/08/28 08:59:46;;;;;;;8.47;7.87;;;;;;;;;;5111363;28;24437;-68
2021/08/28 09:02:12;;;;;;;8.80;8.20;;;;;;;;;;5113659;27;24417;-69
2021/08/28 09:04:37;;;;;;;9.10;8.50;;;;;;;;;;5131912;27;24770;-68
2021/08/28 09:07:03;;;;;;;11.63;10.83;;;;;;;;;;5119641;27;24543;-68
2021/08/28 09:09:28;;;;;;;10.50;9.80;;;;;;;;;;5109389;28;24426;-69
2021/08/28 09:11:57;;;;;;;9.27;8.57;;;;;;;;;;5109907;28;24417;-69
2021/08/28 09:14:22;;;;;;;10.85;9.95;;;;;;;;;;5111784;27;24850;-69
2021/08/28 09:16:49;;;;;;;9.50;8.80;;;;;;;;;;5109930;28;24449;-68
2021/08/28 09:19:14;;;;;;;11.60;10.80;;;;;;;;;;5110807;28;24486;-68
2021/08/28 09:21:39;;;;;;;10.77;9.87;;;;;;;;;;5110634;28;24409;-71
2021/08/28 09:24:09;;;;;;;9.50;8.80;;;;;;;;;;5120338;27;24445;-69
2021/08/28 09:26:36;;;;;;;10.30;9.50;;;;;;;;;;5124502;27;24434;-68
2021/08/28 09:29:02;;;;;;;9.25;8.65;;;;;;;;;;5088443;28;24398;-67
2021/08/28 09:31:41;;;;;;;11.13;10.23;;;;;;;;;;5095119;28;25254;-68
2021/08/28 09:34:12;;;;;;;11.23;10.32;;;;;;;;;;5111835;27;24533;-67
2021/08/28 09:36:38;;;;;;;8.77;8.17;;;;;;;;;;5110140;28;24419;-67
2021/08/28 09:39:03;;;;;;;8.40;7.80;;;;;;;;;;5110554;28;24393;-66
2021/08/28 09:41:28;;;;;;;10.98;10.07;;;;;;;;;;5110393;28;24508;-67
2021/08/28 09:44:02;;;;;;;8.25;7.65;;;;;;;;;;5110189;27;24795;-67
2021/08/28 09:46:27;;;;;;;7.78;7.28;;;;;;;;;;5100466;28;24437;-69
2021/08/28 09:49:00;;;;;;;8.23;7.63;;;;;;;;;;5110397;28;24458;-70
2021/08/28 09:51:25;;;;;;;7.87;7.27;;;;;;;;;;5110064;28;24443;-69
2021/08/28 09:54:00;;;;;;;8.60;8.00;;;;;;;;;;5110110;28;24421;-69
2021/08/28 09:56:26;;;;;;;6.77;6.37;;;;;;;;;;5126665;27;24487;-69
2021/08/28 09:58:52;;;;;;;6.60;6.20;;;;;;;;;;5104716;27;24521;-69
2021/08/28 10:01:20;;;;;;;6.30;5.90;;;;;;;;;;5107070;28;24462;-69
2021/08/28 10:03:56;;;;;;;6.20;5.80;;;;;;;;;;5113854;27;24818;-69
2021/08/28 10:06:21;;;;;;;6.90;6.40;;;;;;;;;;5111535;27;24422;-69
2021/08/28 10:08:46;;;;;;;6.00;5.60;;;;;;;;;;5108631;28;24473;-69
2021/08/28 10:11:11;;;;;;;5.70;5.30;;;;;;;;;;5108789;28;25020;-70
2021/08/28 10:13:37;;;;;;;5.47;4.97;;;;;;;;;;5109172;28;24986;-69
2021/08/28 10:16:02;;;;;;;5.00;4.70;;;;;;;;;;5109496;28;24406;-69
2021/08/28 10:18:28;;;;;;;4.68;4.38;;;;;;;;;;5109087;28;24810;-70
2021/08/28 10:20:55;;;;;;;4.80;4.50;;;;;;;;;;5109910;28;24822;-71
2021/08/28 10:23:22;;;;;;;4.53;4.22;;;;;;;;;;5109058;28;24443;-70
2021/08/28 10:25:47;;;;;;;5.68;5.28;;;;;;;;;;5108760;28;24424;-71
2021/08/28 10:28:12;;;;;;;7.30;6.70;;;;;;;;;;5109542;28;25143;-71
2021/08/28 10:30:38;;;;;;;5.40;5.00;;;;;;;;;;5109564;28;24410;-71
2021/08/28 10:33:03;;;;;;;7.78;7.18;;;;;;;;;;5109083;28;24864;-70
2021/08/28 10:35:29;;;;;;;5.82;5.43;;;;;;;;;;5107522;28;24827;-71
2021/08/28 10:37:54;;;;;;;5.40;5.00;;;;;;;;;;5106413;28;24409;-71
2021/08/28 10:40:24;;;;;;;5.30;4.90;;;;;;;;;;5109151;28;24498;-71
2021/08/28 10:42:54;;;;;;;4.30;4.00;;;;;;;;;;5109773;28;24447;-71
2021/08/28 10:45:26;;;;;;;5.53;5.13;;;;;;;;;;5109646;28;24410;-71
2021/08/28 10:47:55;;;;;;;4.60;4.30;;;;;;;;;;5095329;28;24434;-71
2021/08/28 10:50:20;;;;;;;5.43;5.03;;;;;;;;;;5108699;28;24441;-71
2021/08/28 10:52:48;;;;;;;6.70;6.20;;;;;;;;;;5109269;28;24772;-71
2021/08/28 10:55:14;;;;;;;4.68;4.38;;;;;;;;;;5108047;28;24428;-71
2021/08/28 10:57:39;;;;;;;4.78;4.47;;;;;;;;;;5108865;28;24414;-72
2021/08/28 11:00:05;;;;;;;4.03;3.80;;;;;;;;;;5103691;28;24972;-71
2021/08/28 11:02:46;;;;;;;4.60;4.20;;;;;;;;;;5113312;27;25037;-71
2021/08/28 11:05:15;;;;;;;5.50;5.10;;;;;;;;;;5105501;28;25012;-72
2021/08/28 11:07:42;;;;;;;4.90;4.60;;;;;;;;;;5105673;27;24733;-71
2021/08/28 11:10:07;;;;;;;6.90;6.50;;;;;;;;;;5107480;27;25254;-71
2021/08/28 11:12:52;;;;;;;6.80;6.30;;;;;;;;;;5106666;27;24448;-71
2021/08/28 11:15:35;;;;;;;6.68;6.28;;;;;;;;;;5104937;27;24995;-69
2021/08/28 11:18:07;;;;;;;8.23;7.63;;;;;;;;;;5101952;27;24425;-70
2021/08/28 11:20:41;;;;;;;8.13;7.32;;;;;;;;;;5097704;28;25264;-69
2021/08/28 11:23:11;;;;;;;7.20;6.70;;;;;;;;;;5104440;28;24955;-69
2021/08/28 11:25:37;;;;;;;8.80;8.20;;;;;;;;;;5099062;28;24504;-69
2021/08/28 11:28:04;;;;;;;9.90;9.20;;;;;;;;;;5104102;28;24965;-70
2021/08/28 11:30:38;;;;;;;8.90;8.30;;;;;;;;;;5103078;27;24425;-70
2021/08/28 11:33:07;;;;;;;9.10;8.40;;;;;;;;;;5103588;28;24466;-70
2021/08/28 11:35:32;;;;;;;9.50;8.80;;;;;;;;;;5098592;27;24431;-69
2021/08/28 11:38:05;;;;;;;11.27;10.40;;;;;;;;;;5103279;28;24451;-70
2021/08/28 11:40:30;;;;;;;9.80;9.10;;;;;;;;;;5108109;28;24414;-72
2021/08/28 11:42:56;;;;;;;8.77;8.13;;;;;;;;;;5105153;28;24523;-71
2021/08/28 11:45:27;;;;;;;8.80;8.20;;;;;;;;;;5107368;28;24474;-71
2021/08/28 11:47:52;;;;;;;7.90;7.30;;;;;;;;;;5107232;28;24965;-70
2021/08/28 11:50:17;;;;;;;9.00;8.30;;;;;;;;;;5109731;27;24437;-70
2021/08/28 11:52:42;;;;;;;7.33;6.83;;;;;;;;;;5108279;27;24881;-70
2021/08/28 11:55:08;;;;;;;6.63;6.23;;;;;;;;;;5106691;28;24428;-70
2021/08/28 11:57:35;;;;;;;7.50;7.00;;;;;;;;;;5107562;28;24987;-70
2021/08/28 12:00:01;;;;;;;8.70;8.00;;;;;;;;;;5107556;28;24505;-69
2021/08/28 12:02:26;;;;;;;7.78;7.18;;;;;;;;;;5107772;28;24508;-68
2021/08/28 12:04:51;;;;;;;7.80;7.20;;;;;;;;;;5107559;28;24455;-69
2021/08/28 12:07:17;;;;;;;9.37;8.67;;;;;;;;;;5090042;27;24433;-69
2021/08/28 12:09:42;;;;;;;8.40;7.80;;;;;;;;;;5117654;27;24497;-69
2021/08/28 12:12:07;;;;;;;8.60;8.00;;;;;;;;;;5121803;27;24520;-68
2021/08/28 12:14:33;;;;;;;7.40;6.90;;;;;;;;;;5114689;27;24428;-69
2021/08/28 12:16:59;;;;;;;7.67;7.17;;;;;;;;;;5114503;27;24410;-68
2021/08/28 12:19:25;;;;;;;7.38;6.88;;;;;;;;;;5106719;28;24458;-68
2021/08/28 12:21:54;;;;;;;8.27;7.68;;;;;;;;;;5106223;28;25350;-67
2021/08/28 12:24:26;;;;;;;6.53;6.05;;;;;;;;;;5104331;28;24466;-68
2021/08/28 12:26:51;;;;;;;4.93;4.53;;;;;;;;;;5105785;28;24943;-67
2021/08/28 12:29:24;;;;;;;3.65;3.35;;;;;;;;;;5106453;28;24994;-67
2021/08/28 12:31:56;;;;;;;3.60;3.40;;;;;;;;;;5106523;28;24510;-67
2021/08/28 12:34:22;;;;;;;4.40;4.10;;;;;;;;;;5106673;28;24438;-68
2021/08/28 12:36:48;;;;;;;5.53;4.68;;;;;;;;;;5104113;28;24401;-64
2021/08/28 12:39:13;;;;;;;5.65;5.15;;;;;;;;;;5117005;28;24513;-66
2021/08/28 12:41:39;;;;;;;4.80;4.50;;;;;;;;;;5111821;28;25000;-66
2021/08/28 12:44:05;;;;;;;5.63;5.23;;;;;;;;;;5114294;28;24405;-67
2021/08/28 12:46:32;;;;;;;5.65;5.25;;;;;;;;;;5106334;28;24612;-65
2021/08/28 12:49:09;;;;;;;4.90;4.60;;;;;;;;;;5106949;28;24417;-64
2021/08/28 12:51:34;;;;;;;5.40;5.00;;;;;;;;;;5107721;28;24417;-67
2021/08/28 12:54:00;;;;;;;4.60;4.30;;;;;;;;;;5106807;28;24479;-68
2021/08/28 12:56:25;;;;;;;4.55;4.25;;;;;;;;;;5105740;28;24479;-69
2021/08/28 12:58:50;;;;;;;5.20;4.90;;;;;;;;;;5107885;28;24756;-70
2021/08/28 13:01:15;;;;;;;5.30;5.00;;;;;;;;;;5106751;28;25037;-70
2021/08/28 13:03:46;;;;;;;4.70;4.40;;;;;;;;;;5107527;28;24507;-70
2021/08/28 13:06:38;;;;;;;4.68;4.38;;;;;;;;;;5106482;28;24456;-70
2021/08/28 13:09:13;;;;;;;4.60;4.30;;;;;;;;;;5098617;28;24470;-69
2021/08/28 13:11:38;;;;;;;4.40;4.10;;;;;;;;;;5107399;28;24465;-69
2021/08/28 13:14:04;;;;;;;4.50;4.20;;;;;;;;;;5105748;28;24433;-71
2021/08/28 13:16:29;;;;;;;5.32;5.00;;;;;;;;;;5104424;28;25007;-71
2021/08/28 13:19:14;;;;;;;6.30;5.90;;;;;;;;;;5096281;27;24433;-71
2021/08/28 13:21:40;;;;;;;4.30;4.00;;;;;;;;;;5110468;27;24420;-68
2021/08/28 13:24:09;;;;;;;5.50;5.10;;;;;;;;;;5102538;28;24475;-69
2021/08/28 13:26:53;;;;;;;5.20;4.85;;;;;;;;;;5111060;28;24512;-69
2021/08/28 13:29:25;;;;;;;5.03;4.72;;;;;;;;;;5113439;27;24417;-69
2021/08/28 13:32:06;;;;;;;5.05;4.75;;;;;;;;;;5107164;27;24954;-69
2021/08/28 13:34:45;;;;;;;4.60;4.30;;;;;;;;;;5108289;28;24440;-70
2021/08/28 13:37:10;;;;;;;4.68;4.38;;;;;;;;;;5109489;28;24426;-70
2021/08/28 13:39:36;;;;;;;3.80;3.60;;;;;;;;;;5106199;28;24414;-69
2021/08/28 13:42:02;;;;;;;3.70;3.50;;;;;;;;;;5107447;28;24409;-70
2021/08/28 13:44:27;;;;;;;3.80;3.50;;;;;;;;;;5109307;28;24417;-69
2021/08/28 13:46:52;;;;;;;3.92;3.72;;;;;;;;;;5110094;28;24709;-69
2021/08/28 13:49:17;;;;;;;4.00;3.73;;;;;;;;;;5108572;28;25048;-70
2021/08/28 13:51:42;;;;;;;3.80;3.60;;;;;;;;;;5128175;27;24409;-68
2021/08/28 13:54:07;;;;;;;3.83;3.53;;;;;;;;;;5124661;27;24428;-70
2021/08/28 13:56:33;;;;;;;3.97;3.78;;;;;;;;;;5117014;27;24504;-70
2021/08/28 13:58:58;;;;;;;4.20;3.90;;;;;;;;;;5109119;28;24847;-71
2021/08/28 14:01:23;;;;;;;3.80;3.60;;;;;;;;;;5109669;28;24405;-72
2021/08/28 14:03:48;;;;;;;3.70;3.40;;;;;;;;;;5109464;28;24421;-72
2021/08/28 14:06:13;;;;;;;3.85;3.55;;;;;;;;;;5112431;27;25520;-72
2021/08/28 14:08:38;;;;;;;4.23;3.93;;;;;;;;;;5121334;27;24421;-71
2021/08/28 14:11:04;;;;;;;3.65;3.45;;;;;;;;;;5109564;28;25079;-70
2021/08/28 14:13:30;;;;;;;3.70;3.50;;;;;;;;;;5109401;28;24429;-70
2021/08/28 14:15:55;;;;;;;4.70;4.40;;;;;;;;;;5110824;27;24760;-71
2021/08/28 14:18:20;;;;;;;5.10;4.70;;;;;;;;;;5108785;28;24469;-71
2021/08/28 14:20:45;;;;;;;4.20;3.90;;;;;;;;;;5109034;28;24418;-71
2021/08/28 14:23:10;;;;;;;4.10;3.80;;;;;;;;;;5109111;28;24655;-70
2021/08/28 14:25:35;;;;;;;4.37;4.07;;;;;;;;;;5111201;27;25259;-68
2021/08/28 14:28:01;;;;;;;3.70;3.50;;;;;;;;;;5128127;27;24385;-68
2021/08/28 14:30:26;;;;;;;3.50;3.30;;;;;;;;;;5108854;27;24425;-68
2021/08/28 14:32:51;;;;;;;4.03;3.73;;;;;;;;;;5109189;28;24877;-68
2021/08/28 14:35:17;;;;;;;3.60;3.37;;;;;;;;;;5108439;28;24416;-67
2021/08/28 14:37:42;;;;;;;4.00;3.70;;;;;;;;;;5124508;27;24495;-67